sensor_id;sensor_type;location;lat;lon;timestamp;P1;durP1;ratioP1;P2;durP2;ratioP2
33794;SDS011;51430;52.242;21.118;2023-11-19T00:01:24;53.30;;;40.20;;
33794;SDS011;51430;52.242;21.118;2023-11-19T00:03:54;52.60;;;41.10;;
33794;SDS011;51430;52.242;21.118;2023-11-19T00:06:22;53.30;;;41.90;;
33794;SDS011;51430;52.242;21.118;2023-11-19T00:08:50;48.50;;;37.90;;
33794;SDS011;51430;52.242;21.118;2023-11-19T00:11:21;50.10;;;39.70;;
33794;SDS011;51430;52.242;21.118;2023-11-19T00:13:51;49.10;;;39.20;;
33794;SDS011;51430;52.242;21.118;2023-11-19T00:16:26;49.60;;;39.50;;
33794;SDS011;51430;52.242;21.118;2023-11-19T00:19:02;49.10;;;39.10;;
33794;SDS011;51430;52.242;21.118;2023-11-19T00:21:34;53.30;;;40.80;;
33794;SDS011;51430;52.242;21.118;2023-11-19T00:24:03;51.70;;;40.70;;
33794;SDS011;51430;52.242;21.118;2023-11-19T00:26:32;52.90;;;39.80;;
33794;SDS011;51430;52.242;21.118;2023-11-19T00:29:01;52.10;;;40.70;;
33794;SDS011;51430;52.242;21.118;2023-11-19T00:31:31;51.80;;;41.50;;
33794;SDS011;51430;52.242;21.118;2023-11-19T00:34:00;49.80;;;39.90;;
33794;SDS011;51430;52.242;21.118;2023-11-19T00:36:29;52.50;;;40.00;;
33794;SDS011;51430;52.242;21.118;2023-11-19T00:38:57;51.20;;;40.00;;
33794;SDS011;51430;52.242;21.118;2023-11-19T00:41:25;53.20;;;39.90;;
33794;SDS011;51430;52.242;21.118;2023-11-19T00:43:53;55.20;;;42.20;;
33794;SDS011;51430;52.242;21.118;2023-11-19T00:46:21;51.40;;;39.60;;
33794;SDS011;51430;52.242;21.118;2023-11-19T00:48:51;52.80;;;41.20;;
33794;SDS011;51430;52.242;21.118;2023-11-19T00:51:20;51.90;;;40.50;;
33794;SDS011;51430;52.242;21.118;2023-11-19T00:53:49;52.20;;;40.90;;
33794;SDS011;51430;52.242;21.118;2023-11-19T00:56:17;49.70;;;39.00;;
33794;SDS011;51430;52.242;21.118;2023-11-19T00:58:45;50.40;;;40.00;;
33794;SDS011;51430;52.242;21.118;2023-11-19T01:01:13;52.00;;;39.30;;
33794;SDS011;51430;52.242;21.118;2023-11-19T01:03:41;52.50;;;40.70;;
33794;SDS011;51430;52.242;21.118;2023-11-19T01:06:09;52.10;;;40.20;;
33794;SDS011;51430;52.242;21.118;2023-11-19T01:08:38;49.50;;;39.00;;
33794;SDS011;51430;52.242;21.118;2023-11-19T01:11:06;50.20;;;40.20;;
33794;SDS011;51430;52.242;21.118;2023-11-19T01:13:34;54.00;;;42.30;;
33794;SDS011;51430;52.242;21.118;2023-11-19T01:16:02;53.30;;;41.60;;
33794;SDS011;51430;52.242;21.118;2023-11-19T01:18:31;53.30;;;40.90;;
33794;SDS011;51430;52.242;21.118;2023-11-19T01:20:59;54.40;;;41.50;;
33794;SDS011;51430;52.242;21.118;2023-11-19T01:23:27;55.40;;;42.00;;
33794;SDS011;51430;52.242;21.118;2023-11-19T01:25:55;48.70;;;38.20;;
33794;SDS011;51430;52.242;21.118;2023-11-19T01:28:24;48.80;;;38.70;;
33794;SDS011;51430;52.242;21.118;2023-11-19T01:30:52;45.70;;;37.30;;
33794;SDS011;51430;52.242;21.118;2023-11-19T01:33:20;47.80;;;38.30;;
33794;SDS011;51430;52.242;21.118;2023-11-19T01:35:49;49.10;;;37.90;;
33794;SDS011;51430;52.242;21.118;2023-11-19T01:38:17;48.80;;;38.60;;
33794;SDS011;51430;52.242;21.118;2023-11-19T01:40:45;48.70;;;38.00;;
33794;SDS011;51430;52.242;21.118;2023-11-19T01:43:30;45.80;;;37.30;;
33794;SDS011;51430;52.242;21.118;2023-11-19T01:46:02;47.20;;;38.00;;
33794;SDS011;51430;52.242;21.118;2023-11-19T01:48:35;51.40;;;39.60;;
33794;SDS011;51430;52.242;21.118;2023-11-19T01:51:08;49.00;;;38.60;;
33794;SDS011;51430;52.242;21.118;2023-11-19T01:53:37;49.90;;;38.80;;
33794;SDS011;51430;52.242;21.118;2023-11-19T01:56:07;50.30;;;38.90;;
33794;SDS011;51430;52.242;21.118;2023-11-19T01:58:38;53.70;;;41.20;;
33794;SDS011;51430;52.242;21.118;2023-11-19T02:01:09;56.30;;;43.40;;
33794;SDS011;51430;52.242;21.118;2023-11-19T02:03:38;53.00;;;40.10;;
33794;SDS011;51430;52.242;21.118;2023-11-19T02:06:07;51.30;;;39.60;;
33794;SDS011;51430;52.242;21.118;2023-11-19T02:08:38;50.20;;;38.20;;
33794;SDS011;51430;52.242;21.118;2023-11-19T02:11:08;53.10;;;40.10;;
33794;SDS011;51430;52.242;21.118;2023-11-19T02:13:37;50.20;;;39.50;;
33794;SDS011;51430;52.242;21.118;2023-11-19T02:16:05;50.80;;;38.20;;
33794;SDS011;51430;52.242;21.118;2023-11-19T02:18:34;50.40;;;37.90;;
33794;SDS011;51430;52.242;21.118;2023-11-19T02:21:02;51.90;;;39.10;;
33794;SDS011;51430;52.242;21.118;2023-11-19T02:23:30;51.50;;;38.80;;
33794;SDS011;51430;52.242;21.118;2023-11-19T02:26:09;52.90;;;39.50;;
33794;SDS011;51430;52.242;21.118;2023-11-19T02:28:46;50.90;;;38.70;;
33794;SDS011;51430;52.242;21.118;2023-11-19T02:31:14;51.80;;;39.20;;
33794;SDS011;51430;52.242;21.118;2023-11-19T02:33:42;51.30;;;38.80;;
33794;SDS011;51430;52.242;21.118;2023-11-19T02:36:10;53.20;;;40.30;;
33794;SDS011;51430;52.242;21.118;2023-11-19T02:38:38;55.90;;;41.00;;
33794;SDS011;51430;52.242;21.118;2023-11-19T02:41:06;54.80;;;40.90;;
33794;SDS011;51430;52.242;21.118;2023-11-19T02:43:36;50.40;;;39.30;;
33794;SDS011;51430;52.242;21.118;2023-11-19T02:46:05;54.80;;;39.90;;
33794;SDS011;51430;52.242;21.118;2023-11-19T02:48:39;52.20;;;39.00;;
33794;SDS011;51430;52.242;21.118;2023-11-19T02:51:07;52.40;;;38.50;;
33794;SDS011;51430;52.242;21.118;2023-11-19T02:53:37;52.70;;;39.50;;
33794;SDS011;51430;52.242;21.118;2023-11-19T02:56:08;50.80;;;38.10;;
33794;SDS011;51430;52.242;21.118;2023-11-19T02:58:53;51.30;;;38.80;;
33794;SDS011;51430;52.242;21.118;2023-11-19T03:01:22;51.70;;;37.80;;
33794;SDS011;51430;52.242;21.118;2023-11-19T03:03:58;48.90;;;36.20;;
33794;SDS011;51430;52.242;21.118;2023-11-19T03:06:29;50.80;;;37.00;;
33794;SDS011;51430;52.242;21.118;2023-11-19T03:08:57;51.40;;;38.20;;
33794;SDS011;51430;52.242;21.118;2023-11-19T03:11:25;49.50;;;37.10;;
33794;SDS011;51430;52.242;21.118;2023-11-19T03:13:53;53.70;;;38.90;;
33794;SDS011;51430;52.242;21.118;2023-11-19T03:16:21;52.40;;;39.10;;
33794;SDS011;51430;52.242;21.118;2023-11-19T03:18:49;55.00;;;39.20;;
33794;SDS011;51430;52.242;21.118;2023-11-19T03:21:17;53.50;;;38.50;;
33794;SDS011;51430;52.242;21.118;2023-11-19T03:23:45;54.40;;;37.80;;
33794;SDS011;51430;52.242;21.118;2023-11-19T03:26:14;51.80;;;37.10;;
33794;SDS011;51430;52.242;21.118;2023-11-19T03:28:42;56.00;;;39.20;;
33794;SDS011;51430;52.242;21.118;2023-11-19T03:31:10;51.20;;;38.00;;
33794;SDS011;51430;52.242;21.118;2023-11-19T03:33:37;55.20;;;39.10;;
33794;SDS011;51430;52.242;21.118;2023-11-19T03:36:06;54.10;;;38.30;;
33794;SDS011;51430;52.242;21.118;2023-11-19T03:38:34;54.30;;;39.50;;
33794;SDS011;51430;52.242;21.118;2023-11-19T03:41:10;52.30;;;38.30;;
33794;SDS011;51430;52.242;21.118;2023-11-19T03:43:39;50.60;;;37.90;;
33794;SDS011;51430;52.242;21.118;2023-11-19T03:46:20;51.50;;;37.60;;
33794;SDS011;51430;52.242;21.118;2023-11-19T03:48:49;49.80;;;36.10;;
33794;SDS011;51430;52.242;21.118;2023-11-19T03:51:17;52.30;;;37.40;;
33794;SDS011;51430;52.242;21.118;2023-11-19T03:53:46;51.80;;;38.30;;
33794;SDS011;51430;52.242;21.118;2023-11-19T03:56:15;53.10;;;38.70;;
33794;SDS011;51430;52.242;21.118;2023-11-19T03:58:42;53.90;;;39.10;;
33794;SDS011;51430;52.242;21.118;2023-11-19T04:01:11;52.00;;;38.40;;
33794;SDS011;51430;52.242;21.118;2023-11-19T04:03:42;53.20;;;38.00;;
33794;SDS011;51430;52.242;21.118;2023-11-19T04:06:13;53.60;;;37.80;;
33794;SDS011;51430;52.242;21.118;2023-11-19T04:08:41;50.40;;;37.70;;
33794;SDS011;51430;52.242;21.118;2023-11-19T04:11:09;51.90;;;37.30;;
33794;SDS011;51430;52.242;21.118;2023-11-19T04:13:38;50.10;;;37.40;;
33794;SDS011;51430;52.242;21.118;2023-11-19T04:16:06;53.70;;;39.00;;
33794;SDS011;51430;52.242;21.118;2023-11-19T04:18:34;52.70;;;36.70;;
33794;SDS011;51430;52.242;21.118;2023-11-19T04:21:05;51.70;;;37.60;;
33794;SDS011;51430;52.242;21.118;2023-11-19T04:23:35;54.50;;;39.20;;
33794;SDS011;51430;52.242;21.118;2023-11-19T04:26:03;55.50;;;39.70;;
33794;SDS011;51430;52.242;21.118;2023-11-19T04:28:37;58.30;;;40.10;;
33794;SDS011;51430;52.242;21.118;2023-11-19T04:31:05;58.00;;;40.20;;
33794;SDS011;51430;52.242;21.118;2023-11-19T04:33:35;60.10;;;40.00;;
33794;SDS011;51430;52.242;21.118;2023-11-19T04:36:03;59.30;;;40.50;;
33794;SDS011;51430;52.242;21.118;2023-11-19T04:38:31;59.50;;;40.30;;
33794;SDS011;51430;52.242;21.118;2023-11-19T04:40:59;63.00;;;37.10;;
33794;SDS011;51430;52.242;21.118;2023-11-19T04:43:27;62.30;;;41.00;;
33794;SDS011;51430;52.242;21.118;2023-11-19T04:45:56;68.30;;;41.70;;
33794;SDS011;51430;52.242;21.118;2023-11-19T04:48:24;64.20;;;40.50;;
33794;SDS011;51430;52.242;21.118;2023-11-19T04:50:52;67.90;;;42.30;;
33794;SDS011;51430;52.242;21.118;2023-11-19T04:53:20;66.50;;;42.50;;
33794;SDS011;51430;52.242;21.118;2023-11-19T04:55:48;60.00;;;40.30;;
33794;SDS011;51430;52.242;21.118;2023-11-19T04:58:16;64.50;;;40.70;;
33794;SDS011;51430;52.242;21.118;2023-11-19T05:00:44;61.90;;;39.20;;
33794;SDS011;51430;52.242;21.118;2023-11-19T05:03:12;67.60;;;42.10;;
33794;SDS011;51430;52.242;21.118;2023-11-19T05:05:40;64.10;;;41.60;;
33794;SDS011;51430;52.242;21.118;2023-11-19T05:08:08;62.30;;;40.90;;
33794;SDS011;51430;52.242;21.118;2023-11-19T05:10:36;67.70;;;41.70;;
33794;SDS011;51430;52.242;21.118;2023-11-19T05:13:04;62.20;;;40.30;;
33794;SDS011;51430;52.242;21.118;2023-11-19T05:15:32;60.60;;;39.20;;
33794;SDS011;51430;52.242;21.118;2023-11-19T05:18:00;59.60;;;38.40;;
33794;SDS011;51430;52.242;21.118;2023-11-19T05:20:32;62.00;;;41.30;;
33794;SDS011;51430;52.242;21.118;2023-11-19T05:23:00;59.70;;;38.20;;
33794;SDS011;51430;52.242;21.118;2023-11-19T05:25:28;59.30;;;38.10;;
33794;SDS011;51430;52.242;21.118;2023-11-19T05:27:57;51.90;;;36.80;;
33794;SDS011;51430;52.242;21.118;2023-11-19T05:30:25;52.70;;;35.70;;
33794;SDS011;51430;52.242;21.118;2023-11-19T05:32:54;46.00;;;33.40;;
33794;SDS011;51430;52.242;21.118;2023-11-19T05:35:22;48.30;;;34.20;;
33794;SDS011;51430;52.242;21.118;2023-11-19T05:37:50;43.70;;;31.90;;
33794;SDS011;51430;52.242;21.118;2023-11-19T05:40:18;45.60;;;31.90;;
33794;SDS011;51430;52.242;21.118;2023-11-19T05:42:48;44.40;;;32.10;;
33794;SDS011;51430;52.242;21.118;2023-11-19T05:45:16;44.80;;;32.10;;
33794;SDS011;51430;52.242;21.118;2023-11-19T05:47:44;47.90;;;32.20;;
33794;SDS011;51430;52.242;21.118;2023-11-19T05:50:12;47.30;;;33.40;;
33794;SDS011;51430;52.242;21.118;2023-11-19T05:52:40;49.70;;;34.00;;
33794;SDS011;51430;52.242;21.118;2023-11-19T05:55:08;47.90;;;33.20;;
33794;SDS011;51430;52.242;21.118;2023-11-19T05:57:38;49.20;;;33.80;;
33794;SDS011;51430;52.242;21.118;2023-11-19T06:00:10;47.00;;;33.30;;
33794;SDS011;51430;52.242;21.118;2023-11-19T06:02:40;48.90;;;32.50;;
33794;SDS011;51430;52.242;21.118;2023-11-19T06:05:08;47.90;;;33.20;;
33794;SDS011;51430;52.242;21.118;2023-11-19T06:07:37;48.10;;;32.60;;
33794;SDS011;51430;52.242;21.118;2023-11-19T06:10:07;49.90;;;34.00;;
33794;SDS011;51430;52.242;21.118;2023-11-19T06:12:37;49.50;;;32.90;;
33794;SDS011;51430;52.242;21.118;2023-11-19T06:15:08;46.30;;;31.80;;
33794;SDS011;51430;52.242;21.118;2023-11-19T06:17:37;48.30;;;32.20;;
33794;SDS011;51430;52.242;21.118;2023-11-19T06:20:05;46.50;;;32.40;;
33794;SDS011;51430;52.242;21.118;2023-11-19T06:22:34;46.90;;;32.70;;
33794;SDS011;51430;52.242;21.118;2023-11-19T06:25:02;47.50;;;32.40;;
33794;SDS011;51430;52.242;21.118;2023-11-19T06:27:35;47.60;;;33.10;;
33794;SDS011;51430;52.242;21.118;2023-11-19T06:30:03;43.60;;;30.90;;
33794;SDS011;51430;52.242;21.118;2023-11-19T06:32:32;43.90;;;30.90;;
33794;SDS011;51430;52.242;21.118;2023-11-19T06:35:00;47.00;;;32.00;;
33794;SDS011;51430;52.242;21.118;2023-11-19T06:37:46;45.30;;;25.80;;
33794;SDS011;51430;52.242;21.118;2023-11-19T06:40:15;42.10;;;30.10;;
33794;SDS011;51430;52.242;21.118;2023-11-19T06:42:44;44.20;;;31.20;;
33794;SDS011;51430;52.242;21.118;2023-11-19T06:45:13;45.40;;;32.40;;
33794;SDS011;51430;52.242;21.118;2023-11-19T06:47:41;42.50;;;31.10;;
33794;SDS011;51430;52.242;21.118;2023-11-19T06:50:09;44.00;;;30.60;;
33794;SDS011;51430;52.242;21.118;2023-11-19T06:52:40;42.20;;;30.50;;
33794;SDS011;51430;52.242;21.118;2023-11-19T06:55:08;40.10;;;29.00;;
33794;SDS011;51430;52.242;21.118;2023-11-19T06:57:36;38.00;;;28.90;;
33794;SDS011;51430;52.242;21.118;2023-11-19T07:00:08;37.10;;;28.30;;
33794;SDS011;51430;52.242;21.118;2023-11-19T07:02:38;34.80;;;25.90;;
33794;SDS011;51430;52.242;21.118;2023-11-19T07:05:07;31.50;;;24.90;;
33794;SDS011;51430;52.242;21.118;2023-11-19T07:07:36;28.40;;;22.00;;
33794;SDS011;51430;52.242;21.118;2023-11-19T07:10:05;26.90;;;22.20;;
33794;SDS011;51430;52.242;21.118;2023-11-19T07:12:37;31.00;;;23.60;;
33794;SDS011;51430;52.242;21.118;2023-11-19T07:15:05;23.80;;;19.20;;
33794;SDS011;51430;52.242;21.118;2023-11-19T07:17:33;22.50;;;19.00;;
33794;SDS011;51430;52.242;21.118;2023-11-19T07:20:03;22.40;;;18.40;;
33794;SDS011;51430;52.242;21.118;2023-11-19T07:22:32;18.00;;;16.10;;
33794;SDS011;51430;52.242;21.118;2023-11-19T07:24:59;20.00;;;16.70;;
33794;SDS011;51430;52.242;21.118;2023-11-19T07:27:28;18.70;;;16.40;;
33794;SDS011;51430;52.242;21.118;2023-11-19T07:29:55;18.00;;;16.10;;
33794;SDS011;51430;52.242;21.118;2023-11-19T07:32:24;19.30;;;17.00;;
33794;SDS011;51430;52.242;21.118;2023-11-19T07:34:52;17.40;;;15.70;;
33794;SDS011;51430;52.242;21.118;2023-11-19T07:37:20;17.50;;;15.80;;
33794;SDS011;51430;52.242;21.118;2023-11-19T07:39:50;18.40;;;16.50;;
33794;SDS011;51430;52.242;21.118;2023-11-19T07:42:18;19.30;;;17.30;;
33794;SDS011;51430;52.242;21.118;2023-11-19T07:44:46;17.90;;;16.10;;
33794;SDS011;51430;52.242;21.118;2023-11-19T07:47:14;18.50;;;16.70;;
33794;SDS011;51430;52.242;21.118;2023-11-19T07:49:42;19.40;;;17.50;;
33794;SDS011;51430;52.242;21.118;2023-11-19T07:52:12;19.10;;;17.10;;
33794;SDS011;51430;52.242;21.118;2023-11-19T07:54:43;19.50;;;17.60;;
33794;SDS011;51430;52.242;21.118;2023-11-19T07:57:11;18.70;;;16.80;;
33794;SDS011;51430;52.242;21.118;2023-11-19T07:59:39;20.40;;;18.40;;
33794;SDS011;51430;52.242;21.118;2023-11-19T08:02:07;19.20;;;17.30;;
33794;SDS011;51430;52.242;21.118;2023-11-19T08:04:35;20.10;;;18.10;;
33794;SDS011;51430;52.242;21.118;2023-11-19T08:07:04;20.10;;;18.00;;
33794;SDS011;51430;52.242;21.118;2023-11-19T08:09:31;21.30;;;19.00;;
33794;SDS011;51430;52.242;21.118;2023-11-19T08:12:00;21.50;;;19.30;;
33794;SDS011;51430;52.242;21.118;2023-11-19T08:14:28;21.60;;;19.40;;
33794;SDS011;51430;52.242;21.118;2023-11-19T08:16:56;20.10;;;18.10;;
33794;SDS011;51430;52.242;21.118;2023-11-19T08:19:24;21.40;;;19.30;;
33794;SDS011;51430;52.242;21.118;2023-11-19T08:21:59;20.70;;;18.50;;
33794;SDS011;51430;52.242;21.118;2023-11-19T08:24:26;21.80;;;19.50;;
33794;SDS011;51430;52.242;21.118;2023-11-19T08:26:55;21.60;;;19.50;;
33794;SDS011;51430;52.242;21.118;2023-11-19T08:29:25;20.20;;;18.20;;
33794;SDS011;51430;52.242;21.118;2023-11-19T08:31:55;20.00;;;18.00;;
33794;SDS011;51430;52.242;21.118;2023-11-19T08:34:23;20.90;;;18.60;;
33794;SDS011;51430;52.242;21.118;2023-11-19T08:36:51;21.00;;;18.90;;
33794;SDS011;51430;52.242;21.118;2023-11-19T08:39:21;19.80;;;17.80;;
33794;SDS011;51430;52.242;21.118;2023-11-19T08:41:49;19.80;;;17.70;;
33794;SDS011;51430;52.242;21.118;2023-11-19T08:44:18;20.30;;;18.30;;
33794;SDS011;51430;52.242;21.118;2023-11-19T08:46:50;21.40;;;19.20;;
33794;SDS011;51430;52.242;21.118;2023-11-19T08:49:18;18.70;;;16.90;;
33794;SDS011;51430;52.242;21.118;2023-11-19T08:51:46;20.30;;;18.30;;
33794;SDS011;51430;52.242;21.118;2023-11-19T08:54:14;20.50;;;18.40;;
33794;SDS011;51430;52.242;21.118;2023-11-19T08:56:42;21.20;;;19.00;;
33794;SDS011;51430;52.242;21.118;2023-11-19T08:59:10;20.80;;;18.70;;
33794;SDS011;51430;52.242;21.118;2023-11-19T09:01:38;19.00;;;17.00;;
33794;SDS011;51430;52.242;21.118;2023-11-19T09:04:06;18.80;;;16.90;;
33794;SDS011;51430;52.242;21.118;2023-11-19T09:06:35;19.20;;;17.20;;
33794;SDS011;51430;52.242;21.118;2023-11-19T09:09:04;18.70;;;16.80;;
33794;SDS011;51430;52.242;21.118;2023-11-19T09:11:33;20.40;;;18.40;;
33794;SDS011;51430;52.242;21.118;2023-11-19T09:14:01;19.30;;;17.40;;
33794;SDS011;51430;52.242;21.118;2023-11-19T09:16:29;20.60;;;18.00;;
33794;SDS011;51430;52.242;21.118;2023-11-19T09:18:57;19.70;;;17.70;;
33794;SDS011;51430;52.242;21.118;2023-11-19T09:21:28;20.60;;;18.50;;
33794;SDS011;51430;52.242;21.118;2023-11-19T09:24:00;19.70;;;17.70;;
33794;SDS011;51430;52.242;21.118;2023-11-19T09:26:27;25.20;;;22.10;;
33794;SDS011;51430;52.242;21.118;2023-11-19T09:28:55;22.70;;;20.20;;
33794;SDS011;51430;52.242;21.118;2023-11-19T09:31:23;23.20;;;20.80;;
33794;SDS011;51430;52.242;21.118;2023-11-19T09:33:51;22.40;;;20.20;;
33794;SDS011;51430;52.242;21.118;2023-11-19T09:36:20;23.30;;;21.00;;
33794;SDS011;51430;52.242;21.118;2023-11-19T09:38:48;25.10;;;22.50;;
33794;SDS011;51430;52.242;21.118;2023-11-19T09:41:16;24.20;;;21.70;;
33794;SDS011;51430;52.242;21.118;2023-11-19T09:43:44;23.80;;;21.30;;
33794;SDS011;51430;52.242;21.118;2023-11-19T09:46:13;24.10;;;21.50;;
33794;SDS011;51430;52.242;21.118;2023-11-19T09:48:43;23.70;;;21.10;;
33794;SDS011;51430;52.242;21.118;2023-11-19T09:51:12;23.20;;;20.70;;
33794;SDS011;51430;52.242;21.118;2023-11-19T09:53:40;22.90;;;20.50;;
33794;SDS011;51430;52.242;21.118;2023-11-19T09:56:08;24.60;;;22.10;;
33794;SDS011;51430;52.242;21.118;2023-11-19T09:58:40;24.50;;;21.90;;
33794;SDS011;51430;52.242;21.118;2023-11-19T10:01:09;22.60;;;20.20;;
33794;SDS011;51430;52.242;21.118;2023-11-19T10:03:42;25.40;;;22.80;;
33794;SDS011;51430;52.242;21.118;2023-11-19T10:06:15;23.70;;;21.20;;
33794;SDS011;51430;52.242;21.118;2023-11-19T10:08:44;23.60;;;21.00;;
33794;SDS011;51430;52.242;21.118;2023-11-19T10:11:12;23.20;;;20.80;;
33794;SDS011;51430;52.242;21.118;2023-11-19T10:13:41;23.40;;;20.90;;
33794;SDS011;51430;52.242;21.118;2023-11-19T10:16:13;22.30;;;20.00;;
33794;SDS011;51430;52.242;21.118;2023-11-19T10:18:45;21.80;;;19.40;;
33794;SDS011;51430;52.242;21.118;2023-11-19T10:21:14;22.40;;;20.00;;
33794;SDS011;51430;52.242;21.118;2023-11-19T10:23:49;24.50;;;21.90;;
33794;SDS011;51430;52.242;21.118;2023-11-19T10:26:19;21.90;;;19.60;;
33794;SDS011;51430;52.242;21.118;2023-11-19T10:28:48;25.20;;;22.50;;
33794;SDS011;51430;52.242;21.118;2023-11-19T10:31:16;24.60;;;21.40;;
33794;SDS011;51430;52.242;21.118;2023-11-19T10:33:46;22.80;;;20.20;;
33794;SDS011;51430;52.242;21.118;2023-11-19T10:36:15;23.10;;;20.70;;
33794;SDS011;51430;52.242;21.118;2023-11-19T10:38:56;26.90;;;23.30;;
33794;SDS011;51430;52.242;21.118;2023-11-19T10:43:59;24.90;;;22.20;;
33794;SDS011;51430;52.242;21.118;2023-11-19T10:46:40;23.40;;;20.90;;
33794;SDS011;51430;52.242;21.118;2023-11-19T10:49:09;23.80;;;21.20;;
33794;SDS011;51430;52.242;21.118;2023-11-19T10:51:42;24.70;;;21.90;;
33794;SDS011;51430;52.242;21.118;2023-11-19T10:54:17;25.50;;;22.60;;
33794;SDS011;51430;52.242;21.118;2023-11-19T10:56:48;25.60;;;22.80;;
33794;SDS011;51430;52.242;21.118;2023-11-19T10:59:23;25.20;;;22.50;;
33794;SDS011;51430;52.242;21.118;2023-11-19T11:02:03;24.70;;;22.10;;
33794;SDS011;51430;52.242;21.118;2023-11-19T11:04:36;27.90;;;24.80;;
33794;SDS011;51430;52.242;21.118;2023-11-19T11:07:09;28.90;;;25.70;;
33794;SDS011;51430;52.242;21.118;2023-11-19T11:09:37;26.40;;;23.30;;
33794;SDS011;51430;52.242;21.118;2023-11-19T11:12:07;26.10;;;23.30;;
33794;SDS011;51430;52.242;21.118;2023-11-19T11:14:37;25.60;;;22.90;;
33794;SDS011;51430;52.242;21.118;2023-11-19T11:17:08;26.20;;;23.30;;
33794;SDS011;51430;52.242;21.118;2023-11-19T11:19:39;26.00;;;22.80;;
33794;SDS011;51430;52.242;21.118;2023-11-19T11:22:10;26.40;;;23.60;;
33794;SDS011;51430;52.242;21.118;2023-11-19T11:38:08;28.10;;;23.70;;
33794;SDS011;51430;52.242;21.118;2023-11-19T11:40:36;27.10;;;24.30;;
33794;SDS011;51430;52.242;21.118;2023-11-19T11:43:04;26.10;;;23.30;;
33794;SDS011;51430;52.242;21.118;2023-11-19T11:49:08;25.90;;;23.10;;
33794;SDS011;51430;52.242;21.118;2023-11-19T11:57:07;25.50;;;22.70;;
33794;SDS011;51430;52.242;21.118;2023-11-19T12:02:10;28.30;;;25.20;;
33794;SDS011;51430;52.242;21.118;2023-11-19T12:04:40;27.20;;;24.30;;
33794;SDS011;51430;52.242;21.118;2023-11-19T12:07:12;25.50;;;22.70;;
33794;SDS011;51430;52.242;21.118;2023-11-19T12:09:42;25.40;;;22.80;;
33794;SDS011;51430;52.242;21.118;2023-11-19T12:12:19;25.10;;;22.40;;
33794;SDS011;51430;52.242;21.118;2023-11-19T12:15:01;27.10;;;23.30;;
33794;SDS011;51430;52.242;21.118;2023-11-19T12:20:01;26.80;;;23.10;;
33794;SDS011;51430;52.242;21.118;2023-11-19T12:22:30;27.40;;;24.50;;
33794;SDS011;51430;52.242;21.118;2023-11-19T12:24:58;27.10;;;24.20;;
33794;SDS011;51430;52.242;21.118;2023-11-19T12:27:27;25.70;;;22.90;;
33794;SDS011;51430;52.242;21.118;2023-11-19T12:29:55;27.80;;;24.70;;
33794;SDS011;51430;52.242;21.118;2023-11-19T12:32:24;26.00;;;23.20;;
33794;SDS011;51430;52.242;21.118;2023-11-19T12:34:52;28.30;;;25.30;;
33794;SDS011;51430;52.242;21.118;2023-11-19T12:37:20;26.50;;;23.70;;
33794;SDS011;51430;52.242;21.118;2023-11-19T12:39:48;26.10;;;23.40;;
33794;SDS011;51430;52.242;21.118;2023-11-19T12:42:16;25.90;;;23.20;;
33794;SDS011;51430;52.242;21.118;2023-11-19T12:44:54;27.20;;;24.30;;
33794;SDS011;51430;52.242;21.118;2023-11-19T12:47:23;28.20;;;24.20;;
33794;SDS011;51430;52.242;21.118;2023-11-19T12:49:55;25.60;;;22.90;;
33794;SDS011;51430;52.242;21.118;2023-11-19T12:52:24;27.60;;;24.70;;
33794;SDS011;51430;52.242;21.118;2023-11-19T12:54:52;26.40;;;23.50;;
33794;SDS011;51430;52.242;21.118;2023-11-19T12:57:20;27.80;;;24.30;;
33794;SDS011;51430;52.242;21.118;2023-11-19T12:59:54;26.70;;;23.80;;
33794;SDS011;51430;52.242;21.118;2023-11-19T13:02:44;27.10;;;24.20;;
33794;SDS011;51430;52.242;21.118;2023-11-19T13:05:22;27.70;;;24.40;;
33794;SDS011;51430;52.242;21.118;2023-11-19T13:07:50;26.40;;;23.60;;
33794;SDS011;51430;52.242;21.118;2023-11-19T13:10:19;26.80;;;23.90;;
33794;SDS011;51430;52.242;21.118;2023-11-19T13:13:21;25.70;;;22.90;;
33794;SDS011;51430;52.242;21.118;2023-11-19T13:15:41;24.70;;;22.10;;
33794;SDS011;51430;52.242;21.118;2023-11-19T13:18:12;24.70;;;22.10;;
33794;SDS011;51430;52.242;21.118;2023-11-19T13:20:43;25.70;;;22.90;;
33794;SDS011;51430;52.242;21.118;2023-11-19T13:23:11;26.80;;;23.90;;
33794;SDS011;51430;52.242;21.118;2023-11-19T13:25:40;26.50;;;23.70;;
33794;SDS011;51430;52.242;21.118;2023-11-19T13:28:08;25.20;;;22.50;;
33794;SDS011;51430;52.242;21.118;2023-11-19T13:30:38;24.70;;;22.10;;
33794;SDS011;51430;52.242;21.118;2023-11-19T13:33:07;26.40;;;23.60;;
33794;SDS011;51430;52.242;21.118;2023-11-19T13:35:35;27.60;;;24.60;;
33794;SDS011;51430;52.242;21.118;2023-11-19T13:38:04;27.30;;;24.40;;
33794;SDS011;51430;52.242;21.118;2023-11-19T13:40:32;27.90;;;25.00;;
33794;SDS011;51430;52.242;21.118;2023-11-19T13:43:01;28.90;;;25.80;;
33794;SDS011;51430;52.242;21.118;2023-11-19T13:45:30;29.00;;;25.80;;
33794;SDS011;51430;52.242;21.118;2023-11-19T13:47:58;29.30;;;26.20;;
33794;SDS011;51430;52.242;21.118;2023-11-19T13:50:27;29.20;;;26.00;;
33794;SDS011;51430;52.242;21.118;2023-11-19T13:52:56;28.30;;;25.20;;
33794;SDS011;51430;52.242;21.118;2023-11-19T13:55:25;28.60;;;25.50;;
33794;SDS011;51430;52.242;21.118;2023-11-19T13:57:53;28.50;;;25.20;;
33794;SDS011;51430;52.242;21.118;2023-11-19T14:00:22;27.70;;;24.70;;
33794;SDS011;51430;52.242;21.118;2023-11-19T14:02:52;27.20;;;24.40;;
33794;SDS011;51430;52.242;21.118;2023-11-19T14:05:20;28.50;;;25.00;;
33794;SDS011;51430;52.242;21.118;2023-11-19T14:07:51;26.90;;;23.90;;
33794;SDS011;51430;52.242;21.118;2023-11-19T14:10:21;28.10;;;24.90;;
33794;SDS011;51430;52.242;21.118;2023-11-19T14:12:50;30.20;;;25.40;;
33794;SDS011;51430;52.242;21.118;2023-11-19T14:15:18;27.70;;;24.70;;
33794;SDS011;51430;52.242;21.118;2023-11-19T14:17:46;29.00;;;25.20;;
33794;SDS011;51430;52.242;21.118;2023-11-19T14:20:15;28.60;;;25.10;;
33794;SDS011;51430;52.242;21.118;2023-11-19T14:22:45;29.50;;;26.30;;
33794;SDS011;51430;52.242;21.118;2023-11-19T14:25:17;28.70;;;25.60;;
33794;SDS011;51430;52.242;21.118;2023-11-19T14:27:45;29.90;;;26.60;;
33794;SDS011;51430;52.242;21.118;2023-11-19T14:30:13;33.00;;;27.60;;
33794;SDS011;51430;52.242;21.118;2023-11-19T14:32:42;31.50;;;25.90;;
33794;SDS011;51430;52.242;21.118;2023-11-19T14:35:14;32.20;;;26.90;;
33794;SDS011;51430;52.242;21.118;2023-11-19T14:37:42;31.30;;;26.20;;
33794;SDS011;51430;52.242;21.118;2023-11-19T14:40:10;31.50;;;26.40;;
33794;SDS011;51430;52.242;21.118;2023-11-19T14:42:39;31.90;;;26.80;;
33794;SDS011;51430;52.242;21.118;2023-11-19T14:45:07;32.30;;;27.20;;
33794;SDS011;51430;52.242;21.118;2023-11-19T14:47:40;32.60;;;28.10;;
33794;SDS011;51430;52.242;21.118;2023-11-19T14:50:08;30.70;;;25.70;;
33794;SDS011;51430;52.242;21.118;2023-11-19T14:52:37;32.30;;;27.20;;